Latest Weather Observations for Applethorpe

IDN60801

Issued at 2:32 pm EDT Friday 27 March 2015 (issued every 30 minutes, with the page automatically refreshed every 10 minutes)

About weather observations | Map of weather stations | Latest weather observations for NSW | Other Formats
Station Details ID: 041175 Name: APPLETHORPE Lat: -28.62 Lon: 151.95 Height: 871.6 m
Data from the previous 72 hours. | See also: Recent months at Applethorpe
Date/Time
EDT
Temp
°C
App
Temp
°C
Dew
Point
Rel
Hum
%
Delta-T
°C
Wind Press
QNH
hPa
Press
MSL
hPa
Rain
since 9 am
mm
Dir
 
Spd
km/h
Gust
km/h
Spd
kts
Gust
kts
27/02:30pm 25.6 21.5 2.3 22 11.7 WSW 13 24 7 13 1021.3 1017.3 0.0
27/02:00pm 25.8 22.5 2.7 22 11.7 W 9 19 5 10 1021.5 1017.5 0.0
27/01:30pm 25.8 22.7 3.7 24 11.4 W 9 19 5 10 1021.8 1017.9 0.0
27/01:00pm 25.3 21.7 2.7 23 11.4 WSW 11 19 6 10 1022.3 1018.3 0.0
27/12:30pm 24.9 21.8 3.6 25 10.9 WSW 9 15 5 8 1022.6 1018.7 0.0
27/12:00pm 24.6 20.7 1.0 21 11.5 WSW 11 20 6 11 1023.0 1019.1 0.0
27/11:30am 24.6 20.9 -0.1 19 11.8 WSW 9 17 5 9 1023.1 1019.2 0.0
27/11:00am 24.1 21.3 2.1 23 10.9 W 6 11 3 6 1023.2 1019.3 0.0
27/10:30am 23.0 20.2 2.3 25 10.2 WSW 6 13 3 7 1023.5 1019.5 0.0
27/10:00am 21.7 19.1 3.2 29 9.2 SW 6 9 3 5 1023.4 1019.4 0.0
27/09:30am 20.7 18.3 4.5 34 8.2 SSW 6 9 3 5 1023.4 1019.4 0.0
27/09:00am 18.4 18.4 9.7 57 4.8 CALM 0 0 0 0 1023.0 1019.1 0.0
27/08:30am 14.5 14.9 11.3 81 1.8 CALM 0 0 0 0 1022.9 1019.0 0.0
27/08:00am 11.0 11.0 9.7 92 0.7 CALM 0 0 0 0 1022.7 1018.8 0.0
27/07:30am 9.8 9.5 8.8 93 0.5 CALM 0 0 0 0 1022.4 1018.4 0.0
27/07:00am 9.8 9.6 9.0 95 0.4 CALM 0 4 0 2 1021.9 1018.0 0.0
27/06:30am 9.8 9.5 8.8 93 0.5 CALM 0 0 0 0 1021.5 1017.5 0.0
27/06:00am 9.9 9.7 8.9 93 0.5 CALM 0 0 0 0 1021.3 1017.3 0.0
27/05:30am 10.6 10.5 9.3 92 0.7 CALM 0 0 0 0 1021.1 1017.1 0.0
27/05:00am 10.6 10.4 8.9 89 0.9 CALM 0 0 0 0 1021.0 1017.0 0.0
27/04:30am 10.2 9.9 8.8 91 0.7 CALM 0 0 0 0 1020.7 1016.8 0.0
27/04:00am 11.1 11.0 9.6 90 0.8 CALM 0 0 0 0 1021.0 1017.0 0.0
27/03:30am 11.4 11.5 10.3 93 0.6 CALM 0 0 0 0 1021.1 1017.1 0.0
27/03:00am 11.9 12.1 10.4 90 0.8 CALM 0 0 0 0 1021.3 1017.3 0.0
27/02:30am 12.6 13.0 11.1 91 0.8 CALM 0 0 0 0 1021.6 1017.7 0.0
27/02:00am 12.8 12.8 11.3 91 0.8 NNE 2 4 1 2 1021.8 1017.9 0.0
27/01:30am 13.0 13.3 11.0 88 1.1 CALM 0 0 0 0 1021.8 1017.9 0.0
27/01:00am 13.5 14.1 11.9 90 0.9 CALM 0 0 0 0 1021.9 1018.0 0.0
27/12:30am 13.9 14.6 12.3 90 0.9 CALM 0 0 0 0 1022.2 1018.2 0.0
27/12:00am 14.7 14.6 10.7 77 2.2 NNW 2 4 1 2 1022.2 1018.2 0.0
 
Date/Time
EDT
Temp
°C
App
Temp
°C
Dew
Point
Rel
Hum
%
Delta-T
°C
Wind Press
QNH
hPa
Press
MSL
hPa
Rain
since 9 am
mm
Dir
 
Spd
km/h
Gust
km/h
Spd
kts
Gust
kts
26/11:30pm 15.3 15.7 11.4 77 2.2 CALM 0 0 0 0 1022.4 1018.4 0.0
26/11:00pm 16.0 16.8 12.7 81 1.9 CALM 0 2 0 1 1022.6 1018.7 0.0
26/10:30pm 17.0 16.3 11.5 70 3.1 WSW 6 6 3 3 1022.6 1018.7 0.0
26/10:00pm 17.7 17.7 12.5 71 3.0 WSW 4 7 2 4 1022.6 1018.7 0.0
26/09:30pm 18.8 19.1 13.4 71 3.2 WSW 4 6 2 3 1022.5 1018.5 0.0
26/09:00pm 19.1 20.2 14.6 75 2.7 WNW 2 4 1 2 1022.4 1018.4 0.0
26/08:30pm 20.1 21.7 15.9 77 2.6 W 2 4 1 2 1021.8 1017.9 0.0
26/08:00pm 21.9 23.0 15.6 67 3.9 W 4 9 2 5 1021.6 1017.7 0.0
26/07:30pm 22.2 23.5 17.2 73 3.2 WSW 6 7 3 4 1021.0 1017.0 0.0
26/07:00pm 23.3 24.6 17.5 70 3.7 WSW 7 11 4 6 1020.9 1016.9 0.0
26/06:30pm 24.5 25.3 17.3 64 4.6 WSW 9 15 5 8 1020.5 1016.6 0.0
26/06:00pm 25.1 25.6 17.5 62 4.9 WSW 11 19 6 10 1019.8 1015.8 0.0
26/05:30pm 26.6 26.4 16.6 54 6.4 WSW 13 22 7 12 1019.1 1015.1 0.0
26/05:00pm 26.9 26.8 17.0 54 6.4 W 13 24 7 13 1018.9 1014.9 0.0
26/04:30pm 26.9 27.2 17.0 54 6.4 WSW 11 20 6 11 1019.1 1015.1 0.0
26/04:00pm 26.6 27.0 17.3 56 6.0 WSW 11 17 6 9 1019.2 1015.2 0.0
26/03:30pm 27.0 27.3 17.1 54 6.4 W 11 22 6 12 1019.7 1015.7 0.0
26/03:00pm 27.5 28.2 17.9 55 6.3 WSW 11 20 6 11 1019.9 1015.9 0.0
26/02:30pm 27.1 27.4 17.0 54 6.5 WNW 11 22 6 12 1020.2 1016.2 0.0
26/02:00pm 27.0 28.1 18.0 58 5.9 NNW 9 20 5 11 1020.7 1016.8 0.0
26/01:30pm 26.2 27.9 18.4 62 5.1 NNW 7 15 4 8 1021.1 1017.1 0.0
26/01:00pm 25.0 26.5 18.1 65 4.5 WNW 7 17 4 9 1021.6 1017.7 0.0
26/12:30pm 25.5 27.3 18.7 66 4.5 NW 7 15 4 8 1021.9 1018.0 0.0
26/12:00pm 25.0 26.7 18.4 66 4.3 NNW 7 15 4 8 1022.0 1018.1 0.0
26/11:30am 23.8 25.9 18.9 74 3.2 NW 6 11 3 6 1022.3 1018.3 0.0
26/11:00am 23.3 25.3 19.2 78 2.7 N 7 11 4 6 1022.5 1018.5 0.0
26/10:30am 22.2 25.0 19.6 85 1.7 NNE 4 9 2 5 1022.5 1018.5 0.0
26/10:00am 21.7 24.1 19.6 88 1.4 NNE 6 7 3 4 1022.4 1018.4 0.0
26/09:30am 20.8 23.4 19.3 91 1.0 NNE 4 7 2 4 1022.4 1018.4 0.0
26/09:00am 20.1 23.1 19.3 95 0.5 ENE 2 6 1 3 1022.0 1018.1 0.0
26/08:30am 19.6 22.1 19.0 96 0.4 ENE 4 7 2 4 1021.8 1017.9 0.0
26/08:00am 19.4 22.2 18.9 97 0.3 ENE 2 6 1 3 1021.6 1017.7 0.0
26/07:30am 19.2 22.0 18.9 98 0.2 NE 2 6 1 3 1021.5 1017.5 0.0
26/07:00am 19.1 21.9 18.8 98 0.2 ENE 2 6 1 3 1021.4 1017.4 0.0
26/06:30am 19.1 21.4 18.6 97 0.3 ENE 4 9 2 5 1021.0 1017.0 0.0
26/06:00am 19.0 21.0 18.7 98 0.2 ENE 6 9 3 5 1020.6 1016.7 0.0
26/05:30am 19.1 21.4 18.6 97 0.3 ENE 4 7 2 4 1020.5 1016.6 0.0
26/05:00am 19.0 21.4 18.7 98 0.2 ENE 4 6 2 3 1020.3 1016.3 0.0
26/04:30am 19.0 21.3 18.5 97 0.3 ENE 4 9 2 5 1020.1 1016.1 0.0
26/04:00am 19.1 21.0 18.6 97 0.3 ENE 6 9 3 5 1020.1 1016.1 0.0
26/03:30am 19.1 21.0 18.6 97 0.3 ENE 6 13 3 7 1020.2 1016.2 0.0
26/03:00am 19.2 21.6 18.7 97 0.3 ENE 4 9 2 5 1020.3 1016.3 0.0
26/02:30am 19.2 21.1 18.6 96 0.4 ENE 6 9 3 5 1020.4 1016.4 0.0
26/02:00am 19.3 21.3 18.7 96 0.4 ENE 6 11 3 6 1020.5 1016.6 0.0
26/01:30am 19.3 21.2 18.5 95 0.5 ENE 6 11 3 6 1020.9 1016.9 0.0
26/01:00am 19.3 21.2 18.5 95 0.5 E 6 13 3 7 1020.9 1016.9 0.0
26/12:30am 19.5 21.3 18.4 93 0.7 ENE 6 9 3 5 1021.0 1017.0 0.0
26/12:00am 19.6 21.6 18.7 94 0.6 ENE 6 11 3 6 1021.2 1017.2 0.0
 
Date/Time
EDT
Temp
°C
App
Temp
°C
Dew
Point
Rel
Hum
%
Delta-T
°C
Wind Press
QNH
hPa
Press
MSL
hPa
Rain
since 9 am
mm
Dir
 
Spd
km/h
Gust
km/h
Spd
kts
Gust
kts
25/11:30pm 19.6 21.5 18.5 93 0.7 ENE 6 13 3 7 1021.3 1017.3 0.0
25/11:00pm 19.8 21.5 18.6 93 0.8 ENE 7 13 4 7 1021.5 1017.5 0.0
25/10:30pm 19.9 21.7 18.8 93 0.7 ENE 7 15 4 8 1021.4 1017.4 0.0
25/10:00pm 20.4 22.5 19.0 92 0.9 ENE 6 13 3 7 1021.3 1017.3 0.0
25/09:30pm 20.6 22.6 19.1 91 1.0 E 7 13 4 7 1021.1 1017.1 0.0
25/09:00pm 21.1 23.3 19.6 91 1.0 E 7 13 4 7 1020.9 1016.9 0.0
25/08:30pm 21.4 23.8 19.6 89 1.2 ENE 6 11 3 6 1020.3 1016.3 0.0
25/08:00pm 21.8 24.3 19.8 88 1.3 ENE 6 13 3 7 1019.8 1015.8 0.0
25/07:30pm 22.3 24.9 20.4 89 1.3 ENE 7 13 4 7 1019.5 1015.6 0.0
25/07:00pm 23.8 26.5 20.2 80 2.4 ENE 6 15 3 8 1018.9 1014.9 0.0
25/06:30pm 26.8 26.9 14.4 46 7.7 W 7 13 4 7 1018.5 1014.5 0.0
25/06:00pm 28.1 28.4 14.5 43 8.5 WSW 6 11 3 6 1018.1 1014.1 0.0
25/05:30pm 28.5 27.6 12.7 37 9.6 W 9 19 5 10 1017.8 1013.8 0.0
25/05:00pm 29.4 29.5 14.0 39 9.6 W 6 15 3 8 1017.6 1013.6 0.0
25/04:30pm 29.1 28.6 12.7 36 10.0 W 7 17 4 9 1017.7 1013.7 0.0
25/04:00pm 29.1 28.9 14.6 41 9.1 W 9 15 5 8 1017.7 1013.7 0.0
25/03:30pm 28.6 28.2 14.1 41 9.0 WNW 9 20 5 11 1017.8 1013.8 0.0
25/03:00pm 28.8 28.6 14.8 42 8.8 WNW 9 17 5 9 1017.7 1013.7 0.0
25/02:30pm 27.2 28.0 16.4 51 6.9 WNW 7 13 4 7 1017.9 1013.9 0.0
25/02:00pm 27.0 28.1 17.1 54 6.4 NW 7 17 4 9 1018.0 1014.0 0.0
25/01:30pm 27.8 29.2 17.9 54 6.5 NW 7 13 4 7 1018.5 1014.5 0.0
25/01:00pm 26.9 27.9 17.7 57 6.0 WNW 9 20 5 11 1018.8 1014.8 0.0
25/12:30pm 27.1 28.6 18.1 58 5.9 WNW 7 15 4 8 1019.1 1015.1 0.0
25/12:00pm 26.4 28.0 18.3 61 5.3 NW 7 17 4 9 1019.4 1015.4 0.0
25/11:30am 25.4 26.5 17.9 63 4.9 NNW 9 19 5 10 1019.5 1015.6 0.0
25/11:00am 25.2 26.9 18.5 66 4.4 W 7 13 4 7 1019.7 1015.7 0.0
25/10:30am 23.8 24.9 17.9 69 3.8 W 9 13 5 7 1019.9 1015.9 0.0
25/10:00am 23.6 24.7 17.9 70 3.7 WNW 9 17 5 9 1019.8 1015.8 0.2
25/09:30am 22.5 23.0 17.5 73 3.2 W 11 20 6 11 1019.7 1015.7 0.2
25/09:00am 22.1 22.9 17.2 74 3.1 WNW 9 19 5 10 1019.5 1015.6 0.2
25/08:30am 21.0 22.1 17.2 79 2.4 WNW 7 15 4 8 1019.2 1015.2 0.2
25/08:00am 20.1 21.4 17.1 83 1.9 WNW 6 11 3 6 1018.8 1014.8 0.2
25/07:30am 19.2 20.8 16.8 86 1.5 NNW 4 9 2 5 1018.5 1014.5 0.2
25/07:00am 19.2 20.3 16.5 84 1.7 NNW 6 11 3 6 1018.1 1014.1 0.2
25/06:30am 19.4 20.7 16.2 82 2.0 NW 4 9 2 5 1017.7 1013.7 0.2
25/06:00am 19.3 20.6 16.1 82 2.0 NNW 4 9 2 5 1017.5 1013.5 0.2
25/05:30am 19.3 20.2 16.1 82 2.0 NNW 6 13 3 7 1017.2 1013.1 0.2
25/05:00am 19.3 20.5 15.9 81 2.1 NNW 4 9 2 5 1016.9 1012.9 0.2
25/04:30am 19.3 20.0 15.7 79 2.2 WNW 6 11 3 6 1016.8 1012.8 0.2
25/04:00am 19.8 20.6 15.8 78 2.5 NNW 6 13 3 7 1016.6 1012.6 0.2
25/03:30am 19.9 20.5 15.9 78 2.5 NNW 7 15 4 8 1016.6 1012.6 0.2
25/03:00am 20.0 20.8 16.3 79 2.3 NNW 7 15 4 8 1016.7 1012.7 0.2
25/02:30am 20.1 20.1 16.2 78 2.4 NNW 11 19 6 10 1016.9 1012.9 0.2
25/02:00am 20.3 19.8 15.9 76 2.7 N 13 22 7 12 1017.2 1013.1 0.2
25/01:30am 20.4 20.2 15.7 74 2.9 N 11 20 6 11 1017.5 1013.5 0.2
25/01:00am 20.3 19.8 15.8 75 2.8 N 13 20 7 11 1017.5 1013.5 0.2
25/12:30am 20.4 19.9 15.9 75 2.8 N 13 20 7 11 1017.8 1013.8 0.2
25/12:00am 20.4 20.7 15.9 75 2.8 N 9 17 5 9 1017.8 1013.8 0.2
 
Date/Time
EDT
Temp
°C
App
Temp
°C
Dew
Point
Rel
Hum
%
Delta-T
°C
Wind Press
QNH
hPa
Press
MSL
hPa
Rain
since 9 am
mm
Dir
 
Spd
km/h
Gust
km/h
Spd
kts
Gust
kts
24/11:30pm 20.2 20.2 16.2 78 2.5 N 11 17 6 9 1017.6 1013.6 0.2
24/11:00pm 20.3 20.6 15.9 76 2.7 N 9 15 5 8 1018.1 1014.1 0.2
24/10:30pm 19.9 20.1 15.7 77 2.6 NNE 9 17 5 9 1017.9 1013.9 0.2
24/10:00pm 19.0 19.2 14.7 76 2.6 NNE 7 11 4 6 1017.8 1013.8 0.2
24/09:30pm 17.3 18.0 14.6 84 1.6 NE 4 6 2 3 1017.8 1013.8 0.2
24/09:00pm 17.6 18.7 14.6 82 1.8 NE 2 2 1 1 1017.8 1013.8 0.2
24/08:30pm 18.4 19.3 15.1 81 2.0 NNE 4 6 2 3 1017.7 1013.7 0.2
24/08:00pm 19.3 20.3 14.3 73 3.0 NE 2 4 1 2 1017.0 1013.0 0.2
24/07:30pm 20.7 21.3 14.2 66 3.9 N 4 6 2 3 1016.9 1012.9 0.2
24/07:00pm 22.6 22.4 13.1 55 5.7 N 6 7 3 4 1016.7 1012.7 0.2
24/06:30pm 24.4 24.9 12.7 48 7.0 NNW 2 6 1 3 1016.3 1012.2 0.2
24/06:00pm 25.3 24.7 12.2 44 7.8 NW 7 13 4 7 1016.1 1012.0 0.2
24/05:30pm 26.0 25.1 11.4 40 8.6 WNW 7 15 4 8 1016.0 1011.9 0.2
24/05:00pm 26.3 25.3 12.3 41 8.4 WNW 9 17 5 9 1016.2 1012.1 0.2
24/04:30pm 26.1 25.4 12.0 41 8.4 NNW 7 13 4 7 1016.4 1012.3 0.2
24/04:00pm 26.0 24.5 11.9 41 8.4 W 11 17 6 9 1016.6 1012.6 0.2

Other Formats:

Comma delimited format used in spreadsheet applications
http://www.bom.gov.au/fwo/IDN60801/IDN60801.94553.axf

JavaScript Object Notation format (JSON) in row-major order
http://www.bom.gov.au/fwo/IDN60801/IDN60801.94553.json